TAF and METAR

Could not understand the following METAR

YDBY 290200Z AUTO 16004KT 9999 // BKN037 OVC047 22/22 Q1016
No TAF available for Derby Airport